עמוד ראשי
METAR-TAF:

METAR-TAF

שדות תעופה :

Tenerife South, ספרד

קו רוחב: 28-03N, קו אורך: 016-34W, גובה: 64מטר

תצפית מזג אוויר נוכחית

הדו"ח נערך לפני 44דקות, בשעה 10:00 UTC
רוח 27קשר מכיוון מזרח
טמפרטורת 24 צלסיוס
לחות 57%
לחץ 1021 hPa
ראות 10 קילומטר או יותר
עננים בינוניים בגובה 4000רגל

METAR: GCTS 191000Z 08027KT 9999 BKN040 24/15 Q1021 NOSIG

זמן: 11:44 (10:44 UTC)

תחזית

הדו"ח נערך לפני 2 שעות ו 44דקות, בשעה 08:00 UTC
תחזית בתוקף מ 19 ב 09 UTC עד 20 ב 09 UTC
רוח 20קשר מכיוון מזרח
ראות 10 קילומטר או יותר
מעט עננים בגובה 3000רגל
הסתברות 30% :
זמנית מ -
19 ב 09 UTC עד 19 ב 21 UTC
רוח 20קשר מכיוון מזרח עם משבים עד 30קשר
יעשה מ
19 ב 21 UTC עד 19 ב 23 UTC
רוח 9קשר מכיוון צפון-מזרח

TAF: GCTS 190800Z 1909/2009 10020KT 9999 FEW030 TX27/1914Z TN19/2006Z PROB30 TEMPO 1909/1921 10020G30KT BECMG 1921/1923 04009KT

תצפיות ותחזיות מזג אוויר לגבי יותר מ- 4,000 שדות תעופה ברחבי העולם. דוחות METAR ו- TAF.

התחנות הזמינות מסומנות בנקודות צהובות ואדומות על גבי המפה.

העבר את העכבר לנקודה הצבעונית על מנת לראות את שם התחנה.

לאחר מכן, לחץ כדי לראות את תוכן ואת תחזיות מזג האוויר.

כדי לשנות את המפה: לחץ על הכפתורים הירוקים עם הפלוס השחור כדי להתקרב; על הכפתור הירוק עם המקף כדי להתרחק; או בחיצים הירוקים למפות סמוכות.


METAR-TAF: